createdAt,value
2018-05-09T00:02:23.096Z,16.13
2018-05-09T00:04:52.714Z,15.98
2018-05-09T00:07:22.379Z,15.88
2018-05-09T00:09:52.005Z,15.89
2018-05-09T00:12:21.347Z,16.08
2018-05-09T00:14:50.968Z,16.04
2018-05-09T00:17:20.588Z,16.06
2018-05-09T00:19:50.247Z,15.98
2018-05-09T00:22:19.878Z,16.03
2018-05-09T00:24:49.501Z,15.91
2018-05-09T00:27:19.122Z,15.77
2018-05-09T00:29:48.756Z,15.65
2018-05-09T00:32:18.425Z,15.63
2018-05-09T00:34:48.063Z,15.64
2018-05-09T00:37:17.689Z,15.63
2018-05-09T00:39:47.316Z,15.70
2018-05-09T00:42:16.926Z,15.81
2018-05-09T00:44:46.604Z,15.84
2018-05-09T00:47:16.226Z,15.79
2018-05-09T00:49:45.851Z,15.76
2018-05-09T00:52:15.467Z,15.71
2018-05-09T00:54:45.091Z,15.59
2018-05-09T00:57:14.714Z,15.49
2018-05-09T00:59:44.330Z,15.49
2018-05-09T01:02:13.947Z,15.43
2018-05-09T01:04:43.592Z,15.44
2018-05-09T01:07:12.873Z,15.46
2018-05-09T01:09:42.532Z,15.72
2018-05-09T01:12:12.146Z,15.94
2018-05-09T01:14:41.492Z,15.97
2018-05-09T01:17:11.138Z,15.88
2018-05-09T01:19:40.755Z,15.84
2018-05-09T01:22:10.425Z,15.76
2018-05-09T01:24:39.836Z,15.67
2018-05-09T01:27:09.244Z,15.59
2018-05-09T01:29:38.879Z,15.58
2018-05-09T01:32:08.531Z,15.54
2018-05-09T01:34:38.219Z,15.51
2018-05-09T01:37:07.857Z,15.45
2018-05-09T01:39:37.492Z,15.34
2018-05-09T01:42:07.120Z,15.26
2018-05-09T01:44:36.768Z,15.23
2018-05-09T01:47:06.436Z,15.10
2018-05-09T01:49:36.058Z,14.89
2018-05-09T01:52:05.414Z,14.91
2018-05-09T01:54:35.039Z,14.92
2018-05-09T01:57:04.744Z,14.93
2018-05-09T01:59:34.151Z,14.80
2018-05-09T02:02:03.810Z,14.66
2018-05-09T02:04:33.383Z,14.66
2018-05-09T02:07:03.023Z,14.55
2018-05-09T02:09:32.653Z,14.56
2018-05-09T02:12:02.335Z,14.59
2018-05-09T02:14:31.792Z,14.65
2018-05-09T02:17:01.187Z,14.73
2018-05-09T02:19:30.842Z,14.76
2018-05-09T02:22:00.475Z,14.68
2018-05-09T02:24:30.138Z,14.61
2018-05-09T02:26:59.764Z,14.62
2018-05-09T02:29:29.400Z,14.59
2018-05-09T02:31:59.036Z,14.61
2018-05-09T02:34:28.674Z,14.59
2018-05-09T02:36:58.356Z,14.55
2018-05-09T02:39:27.990Z,14.51
2018-05-09T02:41:57.624Z,14.43
2018-05-09T02:44:27.243Z,14.35
2018-05-09T02:46:56.876Z,14.29
2018-05-09T02:49:26.573Z,14.25
2018-05-09T02:51:56.418Z,14.18
2018-05-09T02:54:26.076Z,14.18
2018-05-09T02:56:55.718Z,14.18
2018-05-09T02:59:25.388Z,14.12
2018-05-09T03:01:54.844Z,14.10
2018-05-09T03:04:24.481Z,14.10
2018-05-09T03:06:54.110Z,14.06
2018-05-09T03:09:23.749Z,14.00
2018-05-09T03:11:53.384Z,13.95
2018-05-09T03:14:23.072Z,13.94
2018-05-09T03:16:52.741Z,13.95
2018-05-09T03:19:22.376Z,13.94
2018-05-09T03:21:52.003Z,13.96
2018-05-09T03:24:21.623Z,13.99
2018-05-09T03:26:51.337Z,14.03
2018-05-09T03:29:20.970Z,14.08
2018-05-09T03:31:50.616Z,14.12
2018-05-09T03:34:20.244Z,14.18
2018-05-09T03:36:49.874Z,14.23
2018-05-09T03:39:19.552Z,14.30
2018-05-09T03:41:49.189Z,14.30
2018-05-09T03:44:18.886Z,14.41
2018-05-09T03:46:48.520Z,14.48
2018-05-09T03:49:18.153Z,14.58
2018-05-09T03:51:47.846Z,14.65
2018-05-09T03:54:17.487Z,14.72
2018-05-09T03:56:47.132Z,14.80
2018-05-09T03:59:16.768Z,14.91
2018-05-09T04:04:57.850Z,15.06
2018-05-09T04:07:38.510Z,15.17
2018-05-09T04:10:07.863Z,15.27
2018-05-09T04:12:37.503Z,15.37
2018-05-09T04:15:07.169Z,15.50
2018-05-09T04:17:36.816Z,15.61
2018-05-09T04:20:06.470Z,15.75
2018-05-09T04:22:36.107Z,15.93
2018-05-09T04:25:05.798Z,16.11
2018-05-09T04:27:35.421Z,16.25
2018-05-09T04:30:05.063Z,16.40
2018-05-09T04:32:34.697Z,16.61
2018-05-09T04:35:04.327Z,16.88
2018-05-09T04:37:34.004Z,17.05
2018-05-09T04:40:03.165Z,17.20
2018-05-09T04:42:32.292Z,17.27
2018-05-09T04:45:01.925Z,17.34
2018-05-09T04:47:31.566Z,17.44
2018-05-09T04:50:01.258Z,17.49
2018-05-09T04:52:30.913Z,17.55
2018-05-09T04:55:00.621Z,17.61
2018-05-09T04:57:30.436Z,17.66
2018-05-09T05:00:00.064Z,17.73
2018-05-09T05:02:29.733Z,17.78
2018-05-09T05:04:59.364Z,17.88
2018-05-09T05:07:29.008Z,18.02
2018-05-09T05:09:58.634Z,18.15
2018-05-09T05:12:28.269Z,18.30
2018-05-09T05:14:57.947Z,18.52
2018-05-09T05:17:27.586Z,18.71
2018-05-09T05:19:57.243Z,18.84
2018-05-09T05:22:26.972Z,18.97
2018-05-09T05:24:56.595Z,19.14
2018-05-09T05:27:26.094Z,19.32
2018-05-09T05:29:55.749Z,19.41
2018-05-09T05:32:25.465Z,19.55
2018-05-09T05:34:55.097Z,19.70
2018-05-09T05:37:24.740Z,19.86
2018-05-09T05:39:54.370Z,20.04
2018-05-09T05:42:24.072Z,20.26
2018-05-09T05:44:53.760Z,20.52
2018-05-09T05:47:23.602Z,20.87
2018-05-09T05:49:53.959Z,21.07
2018-05-09T05:52:23.589Z,21.23
2018-05-09T05:54:53.258Z,21.27
2018-05-09T05:57:22.943Z,21.42
2018-05-09T05:59:52.564Z,21.63
2018-05-09T06:02:22.246Z,21.67
2018-05-09T06:04:51.868Z,21.45
2018-05-09T06:07:21.497Z,21.31
2018-05-09T06:09:51.172Z,21.15
2018-05-09T06:12:20.790Z,21.02
2018-05-09T06:14:50.424Z,20.89
2018-05-09T06:17:20.144Z,20.80
2018-05-09T06:19:49.927Z,20.67
2018-05-09T06:22:19.587Z,20.52
2018-05-09T06:24:49.220Z,20.51
2018-05-09T06:27:18.851Z,20.61
2018-05-09T06:29:48.477Z,20.74
2018-05-09T06:32:18.116Z,20.83
2018-05-09T06:34:47.546Z,20.82
2018-05-09T06:37:17.166Z,20.82
2018-05-09T06:39:46.892Z,20.84
2018-05-09T06:42:16.529Z,20.99
2018-05-09T06:44:46.166Z,21.17
2018-05-09T06:47:15.847Z,21.28
2018-05-09T06:49:45.662Z,21.34
2018-05-09T06:52:15.306Z,21.46
2018-05-09T06:54:44.938Z,21.56
2018-05-09T06:57:14.792Z,21.62
2018-05-09T06:59:44.471Z,21.69
2018-05-09T07:02:14.090Z,21.79
2018-05-09T07:04:43.707Z,21.83
2018-05-09T07:07:13.335Z,21.79
2018-05-09T07:09:42.956Z,21.73
2018-05-09T07:12:12.651Z,21.76
2018-05-09T07:14:42.288Z,21.94
2018-05-09T07:17:11.925Z,22.13
2018-05-09T07:19:41.549Z,22.44
2018-05-09T07:22:11.210Z,22.82
2018-05-09T07:24:41.078Z,23.43
2018-05-09T07:27:10.703Z,24.67
2018-05-09T07:29:40.364Z,27.06
2018-05-09T07:32:10.588Z,29.50
2018-05-09T07:34:40.819Z,31.37
2018-05-09T07:37:11.066Z,32.13
2018-05-09T07:39:41.285Z,32.21
2018-05-09T07:42:11.532Z,31.91
2018-05-09T07:44:41.764Z,31.91
2018-05-09T07:47:11.970Z,32.04
2018-05-09T07:49:42.232Z,31.60
2018-05-09T07:52:12.184Z,31.04
2018-05-09T07:54:42.398Z,31.43
2018-05-09T07:57:12.605Z,31.64
2018-05-09T07:59:42.823Z,32.53
2018-05-09T08:02:13.066Z,33.98
2018-05-09T08:04:43.275Z,35.51
2018-05-09T08:07:13.510Z,37.20
2018-05-09T08:09:43.714Z,37.94
2018-05-09T08:12:13.666Z,37.94
2018-05-09T08:14:43.895Z,38.12
2018-05-09T08:17:14.100Z,37.48
2018-05-09T08:19:44.359Z,36.58
2018-05-09T08:22:14.559Z,35.41
2018-05-09T08:24:44.785Z,34.31
2018-05-09T08:27:14.987Z,33.69
2018-05-09T08:29:45.198Z,33.42
2018-05-09T08:32:15.430Z,33.42
2018-05-09T08:34:45.636Z,34.75
2018-05-09T08:37:15.885Z,34.94
2018-05-09T08:39:46.078Z,34.12
2018-05-09T08:42:16.319Z,33.84
2018-05-09T08:44:46.515Z,35.07
2018-05-09T08:47:16.724Z,36.01
2018-05-09T08:49:46.915Z,35.04
2018-05-09T08:52:17.113Z,33.60
2018-05-09T08:54:47.369Z,32.39
2018-05-09T08:57:17.578Z,32.17
2018-05-09T08:59:47.824Z,32.60
2018-05-09T09:02:18.115Z,33.16
2018-05-09T09:04:48.369Z,33.11
2018-05-09T09:07:18.574Z,32.19
2018-05-09T09:09:48.794Z,31.54
2018-05-09T09:12:18.991Z,31.06
2018-05-09T09:14:49.193Z,30.71
2018-05-09T09:17:19.223Z,30.54
2018-05-09T09:19:49.434Z,30.39
2018-05-09T09:22:19.427Z,30.26
2018-05-09T09:24:49.638Z,30.12
2018-05-09T09:27:19.837Z,29.72
2018-05-09T09:29:50.076Z,29.90
2018-05-09T09:32:20.278Z,30.09
2018-05-09T09:34:50.490Z,30.13
2018-05-09T09:37:20.698Z,30.16
2018-05-09T09:39:50.892Z,30.18
2018-05-09T09:42:20.890Z,30.31
2018-05-09T09:44:51.092Z,30.59
2018-05-09T09:47:21.324Z,30.48
2018-05-09T09:49:51.520Z,30.24
2018-05-09T09:52:21.744Z,30.18
2018-05-09T09:54:51.944Z,30.10
2018-05-09T09:57:22.134Z,29.83
2018-05-09T09:59:51.795Z,29.61
2018-05-09T10:02:22.004Z,29.39
2018-05-09T10:04:52.242Z,28.93
2018-05-09T10:07:22.436Z,28.93
2018-05-09T10:09:52.656Z,29.14
2018-05-09T10:12:22.615Z,29.22
2018-05-09T10:14:52.810Z,29.41
2018-05-09T10:17:23.071Z,29.49
2018-05-09T10:19:53.268Z,29.46
2018-05-09T10:22:23.493Z,29.57
2018-05-09T10:24:53.684Z,29.91
2018-05-09T10:27:23.924Z,30.14
2018-05-09T10:29:54.168Z,30.07
2018-05-09T10:32:24.364Z,29.89
2018-05-09T10:34:54.363Z,29.30
2018-05-09T10:37:24.567Z,28.93
2018-05-09T10:39:54.789Z,28.87
2018-05-09T10:42:25.034Z,29.02
2018-05-09T10:44:55.233Z,29.25
2018-05-09T10:47:25.481Z,29.37
2018-05-09T10:49:55.692Z,29.22
2018-05-09T10:52:25.924Z,28.89
2018-05-09T10:54:56.152Z,28.64
2018-05-09T10:57:26.355Z,28.32
2018-05-09T10:59:56.617Z,28.26
2018-05-09T11:02:26.822Z,28.48
2018-05-09T11:04:57.122Z,28.66
2018-05-09T11:07:27.507Z,28.52
2018-05-09T11:09:57.732Z,28.84
2018-05-09T11:12:27.927Z,29.02
2018-05-09T11:14:58.135Z,28.92
2018-05-09T11:17:28.441Z,28.73
2018-05-09T11:19:57.950Z,28.19
2018-05-09T11:22:27.573Z,27.79
2018-05-09T11:24:57.204Z,27.50
2018-05-09T11:27:26.827Z,27.43
2018-05-09T11:29:56.488Z,27.34
2018-05-09T11:32:26.099Z,27.35
2018-05-09T11:34:55.717Z,27.48
2018-05-09T11:37:25.071Z,27.38
2018-05-09T11:39:54.904Z,27.17
2018-05-09T11:42:24.565Z,27.07
2018-05-09T11:44:54.258Z,27.00
2018-05-09T11:47:24.066Z,26.82
2018-05-09T11:49:53.693Z,26.71
2018-05-09T11:52:23.317Z,26.81
2018-05-09T11:54:53.011Z,26.92
2018-05-09T11:57:22.623Z,27.00
2018-05-09T11:59:52.234Z,27.18
2018-05-09T12:02:21.897Z,27.30
2018-05-09T12:04:52.306Z,27.62
2018-05-09T12:07:22.565Z,28.03
2018-05-09T12:09:52.790Z,28.39
2018-05-09T12:12:23.034Z,28.37
2018-05-09T12:14:53.226Z,28.32
2018-05-09T12:17:23.446Z,28.22
2018-05-09T12:19:53.675Z,28.07
2018-05-09T12:22:23.876Z,28.33
2018-05-09T12:24:54.115Z,28.23
2018-05-09T12:27:23.761Z,27.85
2018-05-09T12:29:53.626Z,27.76
2018-05-09T12:32:23.244Z,27.73
2018-05-09T12:34:52.861Z,27.72
2018-05-09T12:37:22.540Z,27.70
2018-05-09T12:39:52.747Z,27.87
2018-05-09T12:42:22.388Z,27.90
2018-05-09T12:44:52.013Z,27.71
2018-05-09T12:47:22.199Z,27.84
2018-05-09T12:49:51.873Z,27.86
2018-05-09T12:52:22.087Z,27.77
2018-05-09T12:54:52.052Z,27.95
2018-05-09T12:57:22.041Z,28.39
2018-05-09T12:59:52.264Z,28.59
2018-05-09T13:02:22.489Z,28.75
2018-05-09T13:04:52.687Z,28.86
2018-05-09T13:07:22.971Z,28.94
2018-05-09T13:09:53.411Z,29.18
2018-05-09T13:12:23.749Z,29.21
2018-05-09T13:14:54.133Z,29.14
2018-05-09T13:17:24.377Z,29.11
2018-05-09T13:19:54.580Z,29.16
2018-05-09T13:22:24.818Z,29.15
2018-05-09T13:24:55.035Z,29.11
2018-05-09T13:27:25.023Z,28.98
2018-05-09T13:29:55.264Z,28.86
2018-05-09T13:32:25.503Z,28.72
2018-05-09T13:34:55.705Z,28.82
2018-05-09T13:37:25.971Z,29.04
2018-05-09T13:39:56.254Z,29.16
2018-05-09T13:42:26.675Z,29.28
2018-05-09T13:44:56.880Z,29.29
2018-05-09T13:47:27.141Z,29.45
2018-05-09T13:49:57.339Z,29.48
2018-05-09T13:52:27.560Z,29.34
2018-05-09T13:54:57.778Z,28.96
2018-05-09T13:57:27.975Z,28.79
2018-05-09T13:59:58.241Z,28.83
2018-05-09T14:02:28.257Z,28.74
2018-05-09T14:04:58.472Z,28.58
2018-05-09T14:07:28.710Z,28.54
2018-05-09T14:09:58.919Z,28.55
2018-05-09T14:12:29.371Z,28.68
2018-05-09T14:14:59.703Z,28.79
2018-05-09T14:17:29.964Z,28.83
2018-05-09T14:20:00.168Z,28.80
2018-05-09T14:22:30.092Z,28.87
2018-05-09T14:25:00.808Z,28.91
2018-05-09T14:27:31.179Z,29.02
2018-05-09T14:30:01.591Z,29.15
2018-05-09T14:32:31.515Z,29.15
2018-05-09T14:35:01.760Z,29.27
2018-05-09T14:37:31.968Z,29.45
2018-05-09T14:40:02.219Z,29.75
2018-05-09T14:42:32.143Z,30.16
2018-05-09T14:45:02.401Z,30.52
2018-05-09T14:47:32.323Z,30.78
2018-05-09T14:50:02.580Z,30.92
2018-05-09T14:52:32.787Z,31.06
2018-05-09T14:55:03.015Z,31.20
2018-05-09T14:57:32.927Z,31.27
2018-05-09T15:00:03.180Z,31.24
2018-05-09T15:02:33.616Z,31.18
2018-05-09T15:05:03.811Z,31.03
2018-05-09T15:07:33.789Z,30.76
2018-05-09T15:10:03.736Z,30.60
2018-05-09T15:12:33.734Z,30.28
2018-05-09T15:15:03.673Z,29.98
2018-05-09T15:17:33.888Z,29.61
2018-05-09T15:20:03.872Z,29.13
2018-05-09T15:22:33.825Z,28.36
2018-05-09T15:25:03.188Z,26.87
2018-05-09T15:27:32.821Z,25.65
2018-05-09T15:30:02.500Z,24.80
2018-05-09T15:32:31.842Z,24.26
2018-05-09T15:35:01.472Z,23.77
2018-05-09T15:37:31.094Z,23.10
2018-05-09T15:40:00.725Z,22.72
2018-05-09T15:42:30.403Z,22.38
2018-05-09T15:45:00.039Z,22.25
2018-05-09T15:47:29.660Z,22.23
2018-05-09T15:49:59.283Z,22.24
2018-05-09T15:52:28.901Z,22.21
2018-05-09T15:54:58.588Z,22.09
2018-05-09T15:57:27.725Z,21.91
2018-05-09T15:59:57.055Z,21.75
2018-05-09T16:02:26.538Z,21.55
2018-05-09T16:04:55.892Z,21.41
2018-05-09T16:07:25.665Z,21.33
2018-05-09T16:09:55.026Z,21.24
2018-05-09T16:12:24.358Z,21.30
2018-05-09T16:14:54.083Z,21.32
2018-05-09T16:17:23.791Z,21.30
2018-05-09T16:19:53.454Z,21.26
2018-05-09T16:22:22.824Z,21.28
2018-05-09T16:24:52.744Z,21.34
2018-05-09T16:27:22.095Z,21.40
2018-05-09T16:29:51.463Z,21.34
2018-05-09T16:32:20.856Z,21.38
2018-05-09T16:34:50.513Z,21.44
2018-05-09T16:37:19.528Z,21.38
2018-05-09T16:39:49.157Z,21.30
2018-05-09T16:42:18.536Z,21.26
2018-05-09T16:44:47.951Z,21.17
2018-05-09T16:47:17.247Z,21.17
2018-05-09T16:49:46.596Z,20.96
2018-05-09T16:52:15.957Z,20.82
2018-05-09T16:54:45.305Z,20.77
2018-05-09T16:57:15.007Z,20.60
2018-05-09T16:59:44.074Z,20.47
2018-05-09T17:02:13.420Z,20.36
2018-05-09T17:04:43.048Z,20.42
2018-05-09T17:07:12.461Z,20.34
2018-05-09T17:09:42.064Z,20.36
2018-05-09T17:12:11.421Z,20.42
2018-05-09T17:14:40.787Z,20.53
2018-05-09T17:17:10.147Z,20.56
2018-05-09T17:19:39.193Z,20.54
2018-05-09T17:22:25.044Z,20.57
2018-05-09T17:24:54.392Z,20.53
2018-05-09T17:27:23.764Z,20.38
2018-05-09T17:29:53.430Z,20.34
2018-05-09T17:32:22.790Z,20.38
2018-05-09T17:34:52.691Z,20.44
2018-05-09T17:37:22.040Z,20.43
2018-05-09T17:39:51.387Z,20.30
2018-05-09T17:42:21.956Z,20.27
2018-05-09T17:44:51.590Z,20.34
2018-05-09T17:47:21.278Z,20.36
2018-05-09T17:49:50.640Z,20.30
2018-05-09T17:52:20.302Z,20.27
2018-05-09T17:54:49.926Z,20.24
2018-05-09T17:57:19.283Z,20.30
2018-05-09T17:59:48.673Z,20.34
2018-05-09T18:02:18.344Z,20.38
2018-05-09T18:04:47.692Z,20.32
2018-05-09T18:07:17.334Z,20.28
2018-05-09T18:09:46.962Z,20.09
2018-05-09T18:12:16.643Z,20.01
2018-05-09T18:14:46.039Z,19.88
2018-05-09T18:17:15.873Z,19.80
2018-05-09T18:19:45.232Z,19.77
2018-05-09T18:22:14.584Z,19.73
2018-05-09T18:24:44.067Z,19.74
2018-05-09T18:27:13.707Z,19.74
2018-05-09T18:29:43.354Z,19.77
2018-05-09T18:32:12.988Z,19.76
2018-05-09T18:34:42.610Z,19.87
2018-05-09T18:37:12.094Z,19.86
2018-05-09T18:39:41.738Z,19.67
2018-05-09T18:42:11.419Z,19.60
2018-05-09T18:44:41.044Z,19.62
2018-05-09T18:47:10.415Z,19.50
2018-05-09T18:49:40.103Z,19.26
2018-05-09T18:52:09.739Z,18.22
2018-05-09T18:54:39.357Z,17.36
2018-05-09T18:57:08.976Z,16.78
2018-05-09T18:59:38.636Z,16.41
2018-05-09T19:02:08.523Z,16.19
2018-05-09T19:04:38.149Z,16.05
2018-05-09T19:07:07.800Z,16.01
2018-05-09T19:09:37.154Z,16.03
2018-05-09T19:12:06.525Z,16.10
2018-05-09T19:14:36.207Z,16.17
2018-05-09T19:17:05.579Z,16.25
2018-05-09T19:19:34.930Z,16.29
2018-05-09T19:22:04.557Z,16.08
2018-05-09T19:24:34.173Z,15.97
2018-05-09T19:27:03.841Z,15.95
2018-05-09T19:29:33.227Z,15.97
2018-05-09T19:32:02.589Z,15.93
2018-05-09T19:34:32.225Z,15.91
2018-05-09T19:37:01.584Z,15.87
2018-05-09T19:39:31.253Z,15.83
2018-05-09T19:42:00.609Z,15.79
2018-05-09T19:44:29.751Z,15.80
2018-05-09T19:46:59.083Z,15.80
2018-05-09T19:49:28.694Z,15.81
2018-05-09T19:51:58.074Z,15.81
2018-05-09T19:54:27.461Z,15.80
2018-05-09T19:56:56.808Z,15.80
2018-05-09T19:59:26.162Z,15.79
2018-05-09T20:01:55.508Z,15.79
2018-05-09T20:04:24.945Z,15.79
2018-05-09T20:06:54.300Z,15.80
2018-05-09T20:09:23.816Z,15.78
2018-05-09T20:11:53.167Z,15.79
2018-05-09T20:14:22.561Z,15.80
2018-05-09T20:16:52.218Z,15.80
2018-05-09T20:19:21.555Z,15.81
2018-05-09T20:21:50.895Z,15.82
2018-05-09T20:24:20.527Z,15.84
2018-05-09T20:26:49.868Z,15.86
2018-05-09T20:29:19.261Z,15.90
2018-05-09T20:31:59.868Z,15.93
2018-05-09T20:34:29.262Z,15.99
2018-05-09T20:36:58.617Z,15.99
2018-05-09T20:39:27.958Z,16.06
2018-05-09T20:41:57.580Z,16.13
2018-05-09T20:44:27.217Z,16.19
2018-05-09T20:46:56.624Z,16.22
2018-05-09T20:49:25.962Z,16.21
2018-05-09T20:51:55.319Z,16.22
2018-05-09T20:54:24.676Z,16.25
2018-05-09T20:56:54.038Z,16.26
2018-05-09T20:59:23.459Z,16.27
2018-05-09T21:01:52.803Z,16.27
2018-05-09T21:04:22.147Z,16.24
2018-05-09T21:06:51.502Z,16.25
2018-05-09T21:09:20.934Z,16.26
2018-05-09T21:12:01.859Z,16.23
2018-05-09T21:14:30.999Z,16.21
2018-05-09T21:17:00.390Z,16.19
2018-05-09T21:19:29.747Z,16.20
2018-05-09T21:21:59.087Z,16.17
2018-05-09T21:24:28.477Z,16.20
2018-05-09T21:26:57.835Z,16.21
2018-05-09T21:29:27.194Z,16.19
2018-05-09T21:31:56.552Z,16.20
2018-05-09T21:34:26.196Z,16.21
2018-05-09T21:36:55.602Z,16.19
2018-05-09T21:39:25.239Z,16.17
2018-05-09T21:41:55.091Z,16.18
2018-05-09T21:44:24.432Z,16.16
2018-05-09T21:46:54.094Z,16.17
2018-05-09T21:49:23.496Z,16.18
2018-05-09T21:51:53.116Z,16.24
2018-05-09T21:54:22.499Z,16.27
2018-05-09T21:56:51.841Z,16.34
2018-05-09T21:59:21.480Z,16.39
2018-05-09T22:01:50.860Z,16.41
2018-05-09T22:04:20.482Z,16.42
2018-05-09T22:06:50.096Z,16.41
2018-05-09T22:09:19.760Z,16.43
2018-05-09T22:11:49.122Z,16.42
2018-05-09T22:14:18.748Z,16.42
2018-05-09T22:16:48.103Z,16.45
2018-05-09T22:19:17.756Z,16.42
2018-05-09T22:21:47.139Z,16.43
2018-05-09T22:24:16.494Z,16.46
2018-05-09T22:26:45.851Z,16.45
2018-05-09T22:29:15.199Z,16.43
2018-05-09T22:31:44.553Z,16.43
2018-05-09T22:34:13.948Z,16.39
2018-05-09T22:36:43.563Z,16.39
2018-05-09T22:39:12.921Z,16.41
2018-05-09T22:41:42.269Z,16.34
2018-05-09T22:44:11.621Z,16.34
2018-05-09T22:46:41.318Z,16.39
2018-05-09T22:49:10.691Z,16.35
2018-05-09T22:51:40.054Z,16.38
2018-05-09T22:54:09.439Z,16.40
2018-05-09T22:56:38.795Z,16.39
2018-05-09T22:59:08.141Z,16.27
2018-05-09T23:01:37.772Z,16.20
2018-05-09T23:04:07.412Z,16.12
2018-05-09T23:06:37.084Z,16.17
2018-05-09T23:09:06.719Z,16.19
2018-05-09T23:11:36.342Z,16.16
2018-05-09T23:14:05.979Z,16.04
2018-05-09T23:16:35.615Z,15.96
2018-05-09T23:19:05.305Z,16.02
2018-05-09T23:21:34.940Z,16.06
2018-05-09T23:24:04.606Z,16.07
2018-05-09T23:26:34.240Z,16.07
2018-05-09T23:29:03.865Z,16.06
2018-05-09T23:31:33.545Z,16.05
2018-05-09T23:34:03.176Z,16.01
2018-05-09T23:36:32.798Z,15.94
2018-05-09T23:39:02.428Z,15.89
2018-05-09T23:41:32.058Z,15.87
2018-05-09T23:44:01.729Z,15.91
2018-05-09T23:46:31.352Z,15.91
2018-05-09T23:49:00.997Z,15.85
2018-05-09T23:51:30.628Z,15.94
2018-05-09T23:54:00.262Z,16.05
2018-05-09T23:56:29.967Z,16.05
2018-05-09T23:58:59.596Z,16.04
